Time;durP1;ratioP1;P1;durP2;ratioP2;P2;SDS_P1;SDS_P2;PMS_P1;PMS_P2;Temp;Humidity;BMP_temperature;BMP_pressure;BME280_temperature;BME280_humidity;BME280_pressure;Samples;Min_cycle;Max_cycle;Signal;HPM_P1;HPM_P2
2023/07/05 00:00:29;;;;;;;10.85;6.57;;;;;;;;;;5035345;28;20034;-75
2023/07/05 00:02:55;;;;;;;11.85;5.20;;;;;;;;;;5029419;28;20590;-75
2023/07/05 00:05:21;;;;;;;10.25;5.47;;;;;;;;;;5015430;28;20026;-75
2023/07/05 00:07:48;;;;;;;9.57;5.70;;;;;;;;;;5015422;28;20026;-75
2023/07/05 00:10:14;;;;;;;9.27;5.90;;;;;;;;;;5015098;28;20033;-75
2023/07/05 00:12:40;;;;;;;11.18;5.57;;;;;;;;;;5014840;28;20045;-75
2023/07/05 00:15:06;;;;;;;10.20;5.95;;;;;;;;;;5015184;28;20054;-76
2023/07/05 00:17:33;;;;;;;13.85;6.82;;;;;;;;;;5015314;28;20026;-75
2023/07/05 00:19:59;;;;;;;11.93;6.15;;;;;;;;;;5015348;28;20024;-75
2023/07/05 00:22:28;;;;;;;10.32;5.60;;;;;;;;;;5015196;28;20028;-75
2023/07/05 00:24:55;;;;;;;8.17;5.27;;;;;;;;;;5027768;28;20017;-75
2023/07/05 00:27:21;;;;;;;11.20;6.22;;;;;;;;;;5028393;28;20041;-75
2023/07/05 00:29:47;;;;;;;8.68;5.57;;;;;;;;;;5014474;28;20030;-75
2023/07/05 00:32:13;;;;;;;11.57;5.70;;;;;;;;;;4995558;28;20057;-75
2023/07/05 00:34:39;;;;;;;8.98;5.50;;;;;;;;;;4995416;28;20450;-75
2023/07/05 00:37:05;;;;;;;10.05;5.85;;;;;;;;;;5014419;28;20030;-75
2023/07/05 00:39:31;;;;;;;10.57;5.93;;;;;;;;;;5014807;28;20045;-75
2023/07/05 00:41:58;;;;;;;8.82;4.90;;;;;;;;;;5003539;28;20086;-75
2023/07/05 00:44:24;;;;;;;11.73;5.80;;;;;;;;;;5001798;28;20373;-75
2023/07/05 00:46:54;;;;;;;8.77;5.35;;;;;;;;;;5014253;28;20030;-75
2023/07/05 00:49:21;;;;;;;9.88;4.88;;;;;;;;;;5013342;28;20037;-75
2023/07/05 00:51:49;;;;;;;7.45;5.03;;;;;;;;;;5017324;28;20026;-75
2023/07/05 00:54:17;;;;;;;11.30;5.30;;;;;;;;;;5003782;28;20484;-75
2023/07/05 00:56:46;;;;;;;8.60;4.63;;;;;;;;;;5017077;28;20156;-75
2023/07/05 00:59:13;;;;;;;7.90;5.30;;;;;;;;;;5015176;28;20022;-76
2023/07/05 01:01:39;;;;;;;8.25;4.38;;;;;;;;;;5012986;28;20192;-76
2023/07/05 01:04:05;;;;;;;8.93;5.00;;;;;;;;;;5014426;28;20097;-75
2023/07/05 01:06:31;;;;;;;8.40;5.10;;;;;;;;;;5026629;28;20029;-75
2023/07/05 01:08:58;;;;;;;10.02;6.03;;;;;;;;;;5028261;28;20049;-75
2023/07/05 01:11:42;;;;;;;6.97;4.90;;;;;;;;;;5026613;28;20179;-75
2023/07/05 01:14:13;;;;;;;7.32;4.68;;;;;;;;;;4994765;28;20385;-75
2023/07/05 01:16:53;;;;;;;13.38;5.88;;;;;;;;;;4994555;28;20369;-75
2023/07/05 01:19:25;;;;;;;8.23;6.00;;;;;;;;;;4998585;28;20037;-75
2023/07/05 01:22:12;;;;;;;10.52;5.88;;;;;;;;;;5026160;28;20156;-75
2023/07/05 01:24:44;;;;;;;8.63;4.88;;;;;;;;;;5025406;28;20017;-75
2023/07/05 01:27:23;;;;;;;9.88;5.80;;;;;;;;;;5016588;28;20021;-75
2023/07/05 01:29:54;;;;;;;9.80;5.82;;;;;;;;;;5033865;28;20636;-75
2023/07/05 01:32:23;;;;;;;9.25;5.28;;;;;;;;;;5033457;28;20040;-74
2023/07/05 01:35:08;;;;;;;12.70;5.88;;;;;;;;;;5033651;28;20037;-75
2023/07/05 01:37:42;;;;;;;13.07;6.40;;;;;;;;;;5033628;28;20030;-75
2023/07/05 01:40:26;;;;;;;10.02;5.40;;;;;;;;;;5033803;28;20026;-75
2023/07/05 01:42:55;;;;;;;11.90;6.35;;;;;;;;;;5021284;28;20068;-75
2023/07/05 01:45:38;;;;;;;17.02;6.75;;;;;;;;;;5011843;28;20402;-75
2023/07/05 01:48:19;;;;;;;11.50;5.78;;;;;;;;;;5014989;28;20084;-75
2023/07/05 01:50:50;;;;;;;14.88;7.28;;;;;;;;;;5033187;28;20092;-75
2023/07/05 01:53:16;;;;;;;10.98;6.93;;;;;;;;;;5033242;28;20038;-75
2023/07/05 01:56:11;;;;;;;12.85;7.35;;;;;;;;;;5033145;28;20103;-75
2023/07/05 01:58:40;;;;;;;13.65;6.88;;;;;;;;;;5024392;28;20053;-75
2023/07/05 02:01:08;;;;;;;9.60;5.53;;;;;;;;;;5018822;28;20408;-75
2023/07/05 02:03:36;;;;;;;11.40;6.80;;;;;;;;;;5013189;28;20049;-75
2023/07/05 02:06:03;;;;;;;12.32;6.57;;;;;;;;;;5013521;28;20025;-75
2023/07/05 02:08:29;;;;;;;14.07;7.22;;;;;;;;;;5013142;28;20338;-75
2023/07/05 02:10:55;;;;;;;15.75;8.00;;;;;;;;;;5011244;28;20034;-75
2023/07/05 02:13:21;;;;;;;13.48;7.15;;;;;;;;;;5010557;28;20025;-75
2023/07/05 02:15:50;;;;;;;13.25;7.05;;;;;;;;;;5030926;28;20033;-75
2023/07/05 02:18:16;;;;;;;9.98;5.85;;;;;;;;;;5013309;28;20018;-75
2023/07/05 02:20:42;;;;;;;13.02;6.93;;;;;;;;;;5013018;28;20022;-75
2023/07/05 02:23:08;;;;;;;12.45;7.95;;;;;;;;;;5012935;28;20101;-75
2023/07/05 02:25:35;;;;;;;13.10;7.72;;;;;;;;;;5012822;28;20026;-75
2023/07/05 02:28:05;;;;;;;14.00;8.30;;;;;;;;;;5012903;28;20513;-75
2023/07/05 02:30:31;;;;;;;16.30;9.32;;;;;;;;;;5012733;28;20079;-75
2023/07/05 02:32:57;;;;;;;11.35;6.60;;;;;;;;;;5012802;28;20108;-75
2023/07/05 02:35:23;;;;;;;15.60;8.77;;;;;;;;;;5013016;28;20030;-75
2023/07/05 02:37:49;;;;;;;13.68;8.70;;;;;;;;;;5012694;28;20026;-75
2023/07/05 02:40:15;;;;;;;15.80;8.13;;;;;;;;;;5029395;28;20058;-75
2023/07/05 02:42:41;;;;;;;13.23;7.82;;;;;;;;;;5032415;28;20481;-75
2023/07/05 02:45:08;;;;;;;9.32;6.85;;;;;;;;;;5032362;28;20037;-75
2023/07/05 02:47:33;;;;;;;15.40;8.25;;;;;;;;;;5032652;28;20025;-75
2023/07/05 02:50:00;;;;;;;17.83;8.40;;;;;;;;;;5016468;28;20109;-75
2023/07/05 02:52:26;;;;;;;20.30;7.68;;;;;;;;;;5012849;28;20028;-76
2023/07/05 02:54:52;;;;;;;1.73;0.52;;;;;;;;;;5012531;28;20109;-77
2023/07/05 02:57:18;;;;;;;0.85;0.40;;;;;;;;;;5012459;28;20030;-77
2023/07/05 02:59:44;;;;;;;4.18;2.10;;;;;;;;;;5014777;28;20034;-77
2023/07/05 03:02:10;;;;;;;8.73;0.68;;;;;;;;;;5031177;28;20558;-77
2023/07/05 03:04:36;;;;;;;0.38;0.35;;;;;;;;;;5029725;28;20026;-76
2023/07/05 03:07:02;;;;;;;0.20;0.20;;;;;;;;;;5012295;28;20463;-76
2023/07/05 03:09:28;;;;;;;4.43;0.90;;;;;;;;;;5028261;28;20088;-76
2023/07/05 03:11:54;;;;;;;0.15;0.15;;;;;;;;;;5032213;28;20034;-76
2023/07/05 03:14:20;;;;;;;0.80;0.47;;;;;;;;;;5032112;28;20049;-76
2023/07/05 03:16:46;;;;;;;0.60;0.60;;;;;;;;;;5032080;28;20025;-76
2023/07/05 03:19:12;;;;;;;0.50;0.50;;;;;;;;;;5015967;28;20030;-76
2023/07/05 03:21:38;;;;;;;0.10;0.10;;;;;;;;;;5012450;28;20075;-76
2023/07/05 03:24:04;;;;;;;0.10;0.10;;;;;;;;;;5012642;28;20026;-76
2023/07/05 03:26:30;;;;;;;0.25;0.25;;;;;;;;;;5012453;28;20034;-76
2023/07/05 03:28:56;;;;;;;1.45;0.32;;;;;;;;;;5012211;28;20034;-76
2023/07/05 03:31:22;;;;;;;1.10;1.08;;;;;;;;;;5012326;28;20149;-76
2023/07/05 03:33:48;;;;;;;0.25;0.25;;;;;;;;;;5012288;28;20033;-76
2023/07/05 03:36:17;;;;;;;0.35;0.35;;;;;;;;;;5012197;28;20480;-76
2023/07/05 03:38:43;;;;;;;1.90;0.55;;;;;;;;;;5015070;28;20022;-76
2023/07/05 03:41:14;;;;;;;3.55;0.47;;;;;;;;;;5025281;28;20018;-76
2023/07/05 03:43:40;;;;;;;0.65;0.38;;;;;;;;;;5011993;28;20041;-76
2023/07/05 03:46:08;;;;;;;0.55;0.43;;;;;;;;;;5011662;28;20018;-76
2023/07/05 03:48:35;;;;;;;0.20;0.20;;;;;;;;;;5011940;28;20097;-76
2023/07/05 03:51:02;;;;;;;0.10;0.10;;;;;;;;;;5015514;28;20128;-76
2023/07/05 03:53:28;;;;;;;0.52;0.35;;;;;;;;;;5021601;28;20037;-76
2023/07/05 03:55:54;;;;;;;0.50;0.50;;;;;;;;;;5012085;28;20026;-76
2023/07/05 03:58:21;;;;;;;0.45;0.45;;;;;;;;;;5011897;28;20520;-76
2023/07/05 04:00:47;;;;;;;0.10;0.10;;;;;;;;;;4998560;28;20429;-76
2023/07/05 04:03:13;;;;;;;0.10;0.10;;;;;;;;;;4991091;28;20050;-76
2023/07/05 04:05:40;;;;;;;0.40;0.40;;;;;;;;;;4992328;28;20077;-76
2023/07/05 04:08:05;;;;;;;0.20;0.20;;;;;;;;;;4994825;28;20678;-76
2023/07/05 04:10:31;;;;;;;0.75;0.25;;;;;;;;;;4995723;28;20070;-75
2023/07/05 04:12:57;;;;;;;0.35;0.35;;;;;;;;;;4995786;28;20045;-76
2023/07/05 04:15:23;;;;;;;1.35;1.25;;;;;;;;;;5002128;28;20084;-76
2023/07/05 04:17:50;;;;;;;0.88;0.88;;;;;;;;;;5028557;28;20025;-76
2023/07/05 04:20:16;;;;;;;0.10;0.10;;;;;;;;;;5035087;28;20025;-76
2023/07/05 04:22:42;;;;;;;0.05;0.05;;;;;;;;;;5035421;28;20025;-76
2023/07/05 04:25:09;;;;;;;4.03;0.25;;;;;;;;;;5034955;28;20021;-76
2023/07/05 04:27:35;;;;;;;0.30;0.30;;;;;;;;;;5034514;28;20439;-76
2023/07/05 04:30:03;;;;;;;0.00;0.00;;;;;;;;;;5015196;28;20366;-75
2023/07/05 04:32:29;;;;;;;0.00;0.00;;;;;;;;;;5016058;28;20461;-75
2023/07/05 04:34:55;;;;;;;0.30;0.30;;;;;;;;;;5034926;28;20032;-75
2023/07/05 04:37:21;;;;;;;0.47;0.30;;;;;;;;;;5034685;28;20057;-75
2023/07/05 04:39:47;;;;;;;0.40;0.40;;;;;;;;;;5034898;28;20053;-75
2023/07/05 04:42:13;;;;;;;0.30;0.30;;;;;;;;;;5034526;28;20403;-75
2023/07/05 04:44:39;;;;;;;0.08;0.08;;;;;;;;;;5034579;28;20029;-75
2023/07/05 04:47:05;;;;;;;0.10;0.10;;;;;;;;;;5034002;28;20048;-75
2023/07/05 04:49:31;;;;;;;0.08;0.03;;;;;;;;;;5014582;28;20022;-75
2023/07/05 04:51:57;;;;;;;0.30;0.30;;;;;;;;;;5014610;28;20357;-75
2023/07/05 04:54:23;;;;;;;0.43;0.43;;;;;;;;;;5014612;28;20033;-75
2023/07/05 04:56:49;;;;;;;0.00;0.00;;;;;;;;;;5014586;28;20526;-75
2023/07/05 04:59:15;;;;;;;0.32;0.32;;;;;;;;;;5014452;28;20038;-75
2023/07/05 05:01:41;;;;;;;0.65;0.30;;;;;;;;;;5013763;28;20034;-76
2023/07/05 05:04:07;;;;;;;0.47;0.30;;;;;;;;;;5014527;28;20164;-75
2023/07/05 05:06:33;;;;;;;0.35;0.35;;;;;;;;;;5014478;28;20034;-75
2023/07/05 05:08:59;;;;;;;0.10;0.10;;;;;;;;;;5021552;28;20033;-75
2023/07/05 05:11:27;;;;;;;0.10;0.10;;;;;;;;;;5034055;28;20644;-75
2023/07/05 05:13:53;;;;;;;0.05;0.05;;;;;;;;;;5034400;28;20108;-75
2023/07/05 05:16:19;;;;;;;0.00;0.00;;;;;;;;;;5031500;28;20101;-75
2023/07/05 05:18:45;;;;;;;0.10;0.10;;;;;;;;;;4993823;28;20029;-75
2023/07/05 05:21:11;;;;;;;0.00;0.00;;;;;;;;;;4994557;28;20031;-75
2023/07/05 05:23:37;;;;;;;0.30;0.22;;;;;;;;;;4994533;28;20026;-75
2023/07/05 05:26:04;;;;;;;0.10;0.10;;;;;;;;;;4994443;28;20025;-75
2023/07/05 05:28:30;;;;;;;0.00;0.00;;;;;;;;;;4994425;28;20038;-75
2023/07/05 05:31:07;;;;;;;0.45;0.30;;;;;;;;;;4994224;28;20110;-75
2023/07/05 05:33:33;;;;;;;0.00;0.00;;;;;;;;;;4994298;28;20092;-75
2023/07/05 05:35:59;;;;;;;0.20;0.20;;;;;;;;;;4997846;28;20035;-75
2023/07/05 05:38:25;;;;;;;0.30;0.30;;;;;;;;;;5032367;28;20029;-75
2023/07/05 05:40:52;;;;;;;0.15;0.15;;;;;;;;;;5017556;28;20061;-75
2023/07/05 05:43:18;;;;;;;0.22;0.22;;;;;;;;;;5013680;28;20068;-75
2023/07/05 05:45:44;;;;;;;0.00;0.00;;;;;;;;;;5016023;28;20427;-75
2023/07/05 05:48:11;;;;;;;0.10;0.10;;;;;;;;;;5033010;28;20036;-75
2023/07/05 05:50:37;;;;;;;0.00;0.00;;;;;;;;;;5032967;28;20033;-76
2023/07/05 05:53:03;;;;;;;0.32;0.32;;;;;;;;;;5013201;28;20493;-76
2023/07/05 05:55:29;;;;;;;0.10;0.10;;;;;;;;;;5003974;28;20022;-74
2023/07/05 05:57:55;;;;;;;1.55;0.50;;;;;;;;;;5001691;28;20018;-74
2023/07/05 06:00:21;;;;;;;0.00;0.00;;;;;;;;;;5016891;28;20017;-74
2023/07/05 06:02:47;;;;;;;3.53;0.30;;;;;;;;;;5032313;28;20136;-74
2023/07/05 06:05:15;;;;;;;0.20;0.10;;;;;;;;;;5032929;28;20080;-74
2023/07/05 06:07:41;;;;;;;0.17;0.17;;;;;;;;;;5024185;28;20014;-74
2023/07/05 06:10:07;;;;;;;0.30;0.20;;;;;;;;;;5013078;28;20109;-74
2023/07/05 06:12:35;;;;;;;0.00;0.00;;;;;;;;;;5013093;28;20029;-74
2023/07/05 06:15:08;;;;;;;0.10;0.10;;;;;;;;;;5013370;28;20018;-74
2023/07/05 06:17:34;;;;;;;0.75;0.75;;;;;;;;;;5016113;28;20088;-74
2023/07/05 06:20:00;;;;;;;0.10;0.10;;;;;;;;;;5013099;28;20038;-74
2023/07/05 06:22:26;;;;;;;0.20;0.20;;;;;;;;;;5013096;28;20092;-74
2023/07/05 06:24:52;;;;;;;0.00;0.00;;;;;;;;;;5012934;28;20512;-74
2023/07/05 06:27:18;;;;;;;0.10;0.10;;;;;;;;;;5013308;28;20034;-74
2023/07/05 06:29:44;;;;;;;0.00;0.00;;;;;;;;;;5032333;28;20041;-74
2023/07/05 06:32:10;;;;;;;0.20;0.20;;;;;;;;;;5032507;28;20025;-74
2023/07/05 06:34:36;;;;;;;0.10;0.10;;;;;;;;;;5012885;28;20057;-74
2023/07/05 06:37:02;;;;;;;0.00;0.00;;;;;;;;;;5012764;28;20067;-74
2023/07/05 06:39:28;;;;;;;0.40;0.40;;;;;;;;;;5012660;28;20026;-74
2023/07/05 06:41:54;;;;;;;0.15;0.15;;;;;;;;;;5012657;28;20116;-74
2023/07/05 06:44:20;;;;;;;0.00;0.00;;;;;;;;;;5012669;28;20044;-75
2023/07/05 06:46:46;;;;;;;0.00;0.00;;;;;;;;;;5009037;28;20440;-75
2023/07/05 06:49:12;;;;;;;0.00;0.00;;;;;;;;;;4993201;28;20481;-75
2023/07/05 06:51:38;;;;;;;1.48;0.32;;;;;;;;;;4993036;28;20066;-75
2023/07/05 06:54:04;;;;;;;0.15;0.15;;;;;;;;;;4997098;28;20018;-75
2023/07/05 06:56:30;;;;;;;0.00;0.00;;;;;;;;;;5023222;28;20026;-75
2023/07/05 06:58:56;;;;;;;0.10;0.10;;;;;;;;;;5032312;28;20076;-75
2023/07/05 07:01:22;;;;;;;0.00;0.00;;;;;;;;;;5032264;28;20475;-75
2023/07/05 07:03:48;;;;;;;0.20;0.20;;;;;;;;;;5032042;28;20144;-76
2023/07/05 07:06:14;;;;;;;0.63;0.22;;;;;;;;;;5031936;28;20064;-76
2023/07/05 07:08:40;;;;;;;2.22;0.65;;;;;;;;;;5027227;28;20113;-76
2023/07/05 07:11:07;;;;;;;2.03;0.50;;;;;;;;;;5012094;28;20120;-75
2023/07/05 07:13:34;;;;;;;3.05;0.73;;;;;;;;;;5012395;28;20026;-76
2023/07/05 07:16:01;;;;;;;3.08;0.55;;;;;;;;;;5012377;28;20105;-76
2023/07/05 07:18:27;;;;;;;5.20;0.73;;;;;;;;;;5012291;28;20030;-76
2023/07/05 07:20:56;;;;;;;3.42;0.60;;;;;;;;;;5012628;28;20108;-76
2023/07/05 07:23:23;;;;;;;2.65;0.82;;;;;;;;;;5006282;28;20532;-76
2023/07/05 07:25:58;;;;;;;2.75;0.60;;;;;;;;;;5011991;28;20061;-76
2023/07/05 07:28:24;;;;;;;1.67;0.32;;;;;;;;;;4999460;28;20022;-76
2023/07/05 07:30:50;;;;;;;0.98;0.30;;;;;;;;;;5004312;28;20617;-76
2023/07/05 07:33:16;;;;;;;2.97;0.50;;;;;;;;;;5012122;28;20025;-76
2023/07/05 07:35:42;;;;;;;1.38;0.70;;;;;;;;;;5011935;28;20592;-77
2023/07/05 07:38:08;;;;;;;0.93;0.32;;;;;;;;;;5012091;28;20101;-76
2023/07/05 07:40:38;;;;;;;1.23;0.40;;;;;;;;;;5008241;28;20365;-76
2023/07/05 07:43:06;;;;;;;2.80;0.57;;;;;;;;;;4995314;28;20026;-76
2023/07/05 07:45:32;;;;;;;3.55;0.30;;;;;;;;;;5014132;28;20590;-76
2023/07/05 07:47:58;;;;;;;2.60;0.38;;;;;;;;;;5003575;28;20050;-76
2023/07/05 07:50:24;;;;;;;1.17;0.68;;;;;;;;;;5010661;28;20552;-76
2023/07/05 07:52:50;;;;;;;1.63;0.40;;;;;;;;;;5010005;28;20105;-76
2023/07/05 07:55:16;;;;;;;1.58;0.52;;;;;;;;;;5009865;28;20389;-77
2023/07/05 07:57:42;;;;;;;0.40;0.30;;;;;;;;;;5015744;28;20527;-77
2023/07/05 08:00:10;;;;;;;1.10;0.60;;;;;;;;;;5015589;28;20034;-77
2023/07/05 08:02:37;;;;;;;2.90;0.65;;;;;;;;;;5023763;28;20416;-78
2023/07/05 08:05:03;;;;;;;3.35;0.70;;;;;;;;;;5034999;28;20026;-77
2023/07/05 08:07:31;;;;;;;3.22;0.73;;;;;;;;;;5035355;28;20026;-77
2023/07/05 08:09:57;;;;;;;8.82;1.40;;;;;;;;;;5035088;28;20041;-77
2023/07/05 08:12:23;;;;;;;14.25;3.08;;;;;;;;;;5035252;28;20025;-78
2023/07/05 08:14:49;;;;;;;19.48;4.00;;;;;;;;;;5028082;28;20473;-78
2023/07/05 08:17:15;;;;;;;12.57;2.15;;;;;;;;;;5003267;28;20027;-77
2023/07/05 08:19:43;;;;;;;11.75;2.08;;;;;;;;;;5013551;28;20197;-78
2023/07/05 08:22:10;;;;;;;9.90;2.17;;;;;;;;;;5015273;28;20018;-78
2023/07/05 08:24:36;;;;;;;12.85;2.30;;;;;;;;;;5016737;28;20034;-78
2023/07/05 08:27:02;;;;;;;21.02;3.25;;;;;;;;;;5012057;28;20106;-77
2023/07/05 08:29:28;;;;;;;17.17;3.53;;;;;;;;;;5011354;28;20416;-77
2023/07/05 08:31:54;;;;;;;20.30;3.88;;;;;;;;;;5012690;28;20026;-77
2023/07/05 08:34:20;;;;;;;26.75;3.58;;;;;;;;;;5016635;28;20026;-77
2023/07/05 08:36:46;;;;;;;23.75;3.40;;;;;;;;;;5015178;28;20018;-78
2023/07/05 08:39:13;;;;;;;29.48;3.28;;;;;;;;;;5015033;28;20342;-78
2023/07/05 08:41:41;;;;;;;7.68;2.25;;;;;;;;;;5015045;28;20026;-78
2023/07/05 08:44:21;;;;;;;11.88;2.28;;;;;;;;;;5017351;28;20057;-78
2023/07/05 08:46:55;;;;;;;5.85;1.48;;;;;;;;;;5024381;28;20434;-78
2023/07/05 08:49:28;;;;;;;7.97;2.20;;;;;;;;;;5012004;28;20033;-76
2023/07/05 08:51:56;;;;;;;7.85;1.88;;;;;;;;;;5015269;28;20030;-79
2023/07/05 08:54:22;;;;;;;4.80;1.60;;;;;;;;;;5012910;28;20116;-77
2023/07/05 08:56:55;;;;;;;1.52;0.70;;;;;;;;;;5012935;28;20065;-77
2023/07/05 08:59:30;;;;;;;1.88;0.45;;;;;;;;;;5007679;28;20023;-77
2023/07/05 09:01:57;;;;;;;0.88;0.40;;;;;;;;;;5022992;28;20037;-78
2023/07/05 09:04:27;;;;;;;2.75;0.25;;;;;;;;;;5016898;28;20025;-77
2023/07/05 09:06:56;;;;;;;1.67;0.30;;;;;;;;;;5019076;28;20049;-77
2023/07/05 09:09:22;;;;;;;2.53;0.60;;;;;;;;;;5013221;28;20038;-77
2023/07/05 09:12:00;;;;;;;2.05;0.50;;;;;;;;;;5013201;28;20108;-76
2023/07/05 09:14:40;;;;;;;3.83;0.68;;;;;;;;;;5014087;28;20056;-76
2023/07/05 09:17:10;;;;;;;1.42;0.65;;;;;;;;;;5013899;28;20346;-76
2023/07/05 09:19:48;;;;;;;1.98;0.57;;;;;;;;;;4994678;28;20026;-76
2023/07/05 09:22:17;;;;;;;1.60;0.30;;;;;;;;;;4994562;28;20034;-76
2023/07/05 09:24:45;;;;;;;2.20;0.50;;;;;;;;;;4994491;28;20050;-76
2023/07/05 09:27:11;;;;;;;0.75;0.50;;;;;;;;;;4994455;28;20023;-77
2023/07/05 09:29:50;;;;;;;1.75;0.30;;;;;;;;;;4997485;28;20034;-76
2023/07/05 09:32:24;;;;;;;1.05;0.32;;;;;;;;;;5014287;28;20468;-76
2023/07/05 09:34:58;;;;;;;1.17;0.20;;;;;;;;;;5014053;28;20534;-76
2023/07/05 09:37:28;;;;;;;1.58;0.30;;;;;;;;;;4994580;28;20120;-76
2023/07/05 09:40:06;;;;;;;1.35;0.50;;;;;;;;;;5012415;28;20473;-76
2023/07/05 09:42:56;;;;;;;1.38;0.40;;;;;;;;;;5013670;28;20029;-76
2023/07/05 09:45:22;;;;;;;0.60;0.40;;;;;;;;;;5008150;28;20117;-76
2023/07/05 09:47:50;;;;;;;1.02;0.50;;;;;;;;;;5001992;28;20022;-76
2023/07/05 09:50:20;;;;;;;1.85;0.47;;;;;;;;;;5013585;28;20076;-76
2023/07/05 09:52:48;;;;;;;2.88;0.60;;;;;;;;;;5011905;28;20350;-76
2023/07/05 09:55:15;;;;;;;0.95;0.52;;;;;;;;;;5031376;28;20104;-76
2023/07/05 09:57:42;;;;;;;2.78;0.50;;;;;;;;;;5033220;28;20030;-76
2023/07/05 10:00:27;;;;;;;2.33;0.40;;;;;;;;;;5001582;28;20021;-76
2023/07/05 10:02:54;;;;;;;1.67;0.32;;;;;;;;;;5012447;28;20056;-76
2023/07/05 10:05:25;;;;;;;1.58;0.68;;;;;;;;;;5000161;28;20793;-76
2023/07/05 10:07:59;;;;;;;0.90;0.43;;;;;;;;;;5021980;28;20076;-76
2023/07/05 10:10:36;;;;;;;1.38;0.65;;;;;;;;;;5013371;28;20070;-76
2023/07/05 10:13:20;;;;;;;2.25;0.55;;;;;;;;;;5013246;28;20021;-75
2023/07/05 10:15:47;;;;;;;2.08;0.60;;;;;;;;;;5012531;28;20026;-75
2023/07/05 10:18:31;;;;;;;3.92;0.82;;;;;;;;;;5013043;28;20029;-76
2023/07/05 10:20:58;;;;;;;3.80;0.70;;;;;;;;;;5013049;28;20030;-76
2023/07/05 10:23:25;;;;;;;3.50;0.88;;;;;;;;;;5013097;28;20026;-76
2023/07/05 10:25:52;;;;;;;5.55;1.00;;;;;;;;;;5013089;28;20022;-76
2023/07/05 10:28:21;;;;;;;4.45;0.70;;;;;;;;;;5013099;28;20026;-76
2023/07/05 10:30:49;;;;;;;4.88;0.90;;;;;;;;;;5013218;28;20034;-76
2023/07/05 10:33:16;;;;;;;2.70;0.60;;;;;;;;;;5022503;28;20083;-76
2023/07/05 10:35:46;;;;;;;5.53;1.10;;;;;;;;;;5013197;28;20465;-76
2023/07/05 10:38:39;;;;;;;3.88;0.80;;;;;;;;;;5012764;28;20022;-76
2023/07/05 10:41:17;;;;;;;4.38;0.70;;;;;;;;;;5007136;28;20095;-76
2023/07/05 10:43:45;;;;;;;5.68;1.05;;;;;;;;;;5003631;28;20033;-76
2023/07/05 10:46:22;;;;;;;4.75;0.85;;;;;;;;;;5005641;28;20041;-77
2023/07/05 10:48:49;;;;;;;2.90;0.63;;;;;;;;;;5024130;28;20096;-76
2023/07/05 10:51:17;;;;;;;4.63;0.73;;;;;;;;;;5012464;28;20038;-76
2023/07/05 10:53:47;;;;;;;5.78;1.30;;;;;;;;;;5012530;28;20022;-76
2023/07/05 10:56:13;;;;;;;;;;;;;;;;;;5013296;28;20449;-76
2023/07/05 10:59:00;;;;;;;5.18;1.33;;;;;;;;;;5012603;28;19909;-76
2023/07/05 11:01:38;;;;;;;7.40;1.10;;;;;;;;;;5021691;28;20068;-76
2023/07/05 11:04:07;;;;;;;8.23;1.27;;;;;;;;;;5022021;28;20053;-76
2023/07/05 11:06:35;;;;;;;4.97;1.08;;;;;;;;;;5012461;28;20036;-76
2023/07/05 11:09:02;;;;;;;5.35;1.15;;;;;;;;;;5012329;28;20468;-76
2023/07/05 11:11:30;;;;;;;6.93;1.17;;;;;;;;;;5012434;28;20188;-76
2023/07/05 11:14:00;;;;;;;7.22;2.08;;;;;;;;;;5012715;28;20057;-76
2023/07/05 11:16:27;;;;;;;23.90;2.75;;;;;;;;;;5012766;28;20017;-76
2023/07/05 11:19:09;;;;;;;9.48;2.10;;;;;;;;;;5019080;28;20029;-76
2023/07/05 11:21:37;;;;;;;8.23;1.67;;;;;;;;;;5016697;28;20022;-76
2023/07/05 11:24:04;;;;;;;7.97;1.88;;;;;;;;;;5016322;28;20021;-76
2023/07/05 11:26:31;;;;;;;8.82;2.33;;;;;;;;;;5016352;28;20022;-76
2023/07/05 11:28:57;;;;;;;9.50;1.85;;;;;;;;;;5016288;28;20022;-75
2023/07/05 11:31:29;;;;;;;8.25;1.95;;;;;;;;;;5016245;28;20028;-76
2023/07/05 11:34:14;;;;;;;10.98;2.00;;;;;;;;;;5016151;28;20029;-76
2023/07/05 11:36:40;;;;;;;12.80;1.90;;;;;;;;;;5016139;28;20056;-77
2023/07/05 11:39:07;;;;;;;6.28;1.60;;;;;;;;;;5016097;28;20102;-77
2023/07/05 11:41:34;;;;;;;5.88;1.55;;;;;;;;;;5016261;28;20026;-77
2023/07/05 11:44:05;;;;;;;8.88;1.77;;;;;;;;;;5015856;28;20033;-77
2023/07/05 11:46:41;;;;;;;12.63;2.53;;;;;;;;;;5015835;28;20105;-76
2023/07/05 11:49:27;;;;;;;7.50;2.20;;;;;;;;;;5016074;28;20046;-76
2023/07/05 11:52:03;;;;;;;12.18;2.50;;;;;;;;;;5015835;28;20026;-76
2023/07/05 11:54:37;;;;;;;14.35;1.98;;;;;;;;;;5009456;28;20066;-76
2023/07/05 11:57:06;;;;;;;10.68;2.60;;;;;;;;;;5015701;28;20022;-76
2023/07/05 11:59:35;;;;;;;15.32;2.58;;;;;;;;;;5015635;28;20100;-76
2023/07/05 12:02:08;;;;;;;14.40;3.07;;;;;;;;;;5015350;28;20032;-77
2023/07/05 12:04:34;;;;;;;20.73;3.17;;;;;;;;;;5002994;28;20152;-76
2023/07/05 12:07:02;;;;;;;15.45;2.78;;;;;;;;;;5015020;28;20472;-76
2023/07/05 12:09:36;;;;;;;14.70;3.15;;;;;;;;;;5015387;28;20104;-76
2023/07/05 12:12:03;;;;;;;8.40;2.17;;;;;;;;;;5015667;28;20018;-77
2023/07/05 12:14:29;;;;;;;13.00;2.97;;;;;;;;;;5015526;28;20022;-76
2023/07/05 12:16:56;;;;;;;9.95;1.95;;;;;;;;;;5032559;28;20025;-76
2023/07/05 12:19:29;;;;;;;16.33;3.17;;;;;;;;;;5035048;28;20037;-76
2023/07/05 12:21:58;;;;;;;11.38;3.22;;;;;;;;;;5015440;28;20419;-76
2023/07/05 12:24:24;;;;;;;13.18;2.70;;;;;;;;;;5015600;28;20034;-76
2023/07/05 12:26:50;;;;;;;13.38;2.97;;;;;;;;;;5015150;28;20476;-77
2023/07/05 12:29:34;;;;;;;8.20;1.95;;;;;;;;;;5014668;28;20109;-76
2023/07/05 12:32:05;;;;;;;6.63;2.55;;;;;;;;;;5015400;28;20041;-76
2023/07/05 12:34:31;;;;;;;9.05;2.45;;;;;;;;;;5015380;28;20377;-76
2023/07/05 12:36:58;;;;;;;12.70;2.53;;;;;;;;;;5014966;28;20072;-76
2023/07/05 12:39:25;;;;;;;11.27;2.38;;;;;;;;;;5015223;28;20026;-76
2023/07/05 12:42:03;;;;;;;11.35;2.20;;;;;;;;;;5015000;28;20460;-76
2023/07/05 12:44:30;;;;;;;5.93;1.45;;;;;;;;;;5015222;28;20026;-76
2023/07/05 12:47:10;;;;;;;10.15;1.63;;;;;;;;;;5012301;28;20026;-75
2023/07/05 12:49:36;;;;;;;8.98;1.25;;;;;;;;;;5004732;28;20045;-75
2023/07/05 12:52:02;;;;;;;12.52;1.55;;;;;;;;;;5014503;28;20030;-75
2023/07/05 12:54:29;;;;;;;4.95;1.63;;;;;;;;;;5016621;28;20018;-75
2023/07/05 12:56:56;;;;;;;7.25;2.03;;;;;;;;;;5014933;28;20456;-75
2023/07/05 12:59:25;;;;;;;8.73;1.42;;;;;;;;;;5014801;28;20172;-74
2023/07/05 13:01:52;;;;;;;6.47;1.27;;;;;;;;;;5014582;28;20022;-75
2023/07/05 13:04:19;;;;;;;9.07;1.52;;;;;;;;;;5014507;28;20607;-75
2023/07/05 13:06:48;;;;;;;11.55;1.80;;;;;;;;;;5001367;28;20428;-75
2023/07/05 13:09:23;;;;;;;7.32;2.00;;;;;;;;;;5014428;28;20017;-74
2023/07/05 13:12:15;;;;;;;5.85;1.13;;;;;;;;;;4998717;28;20035;-75
2023/07/05 13:14:54;;;;;;;5.68;1.00;;;;;;;;;;4992994;28;20052;-75
2023/07/05 13:17:23;;;;;;;6.18;1.60;;;;;;;;;;5003185;28;20029;-75
2023/07/05 13:19:49;;;;;;;8.43;1.58;;;;;;;;;;5014369;28;20432;-75
2023/07/05 13:22:26;;;;;;;9.43;2.10;;;;;;;;;;5006059;28;20489;-75
2023/07/05 13:24:53;;;;;;;8.18;2.10;;;;;;;;;;4994800;28;20401;-75
2023/07/05 13:27:26;;;;;;;13.73;2.53;;;;;;;;;;4994491;28;20026;-75
2023/07/05 13:29:52;;;;;;;11.30;2.88;;;;;;;;;;5004031;28;20029;-75
2023/07/05 13:32:21;;;;;;;10.40;1.88;;;;;;;;;;5020393;28;20061;-75
2023/07/05 13:34:47;;;;;;;5.45;1.60;;;;;;;;;;4994262;28;20061;-74
2023/07/05 13:37:15;;;;;;;6.30;1.52;;;;;;;;;;4995425;28;20027;-75
2023/07/05 13:39:41;;;;;;;9.55;2.03;;;;;;;;;;4993448;28;20092;-74
2023/07/05 13:42:11;;;;;;;10.52;1.85;;;;;;;;;;4998103;28;20029;-75
2023/07/05 13:44:37;;;;;;;;;;;;;;;;;;5024954;28;20120;-75
2023/07/05 13:47:03;;;;;;;7.88;1.95;;;;;;;;;;5033401;28;20415;-75
2023/07/05 13:49:29;;;;;;;6.47;2.17;;;;;;;;;;5033553;28;20041;-75
2023/07/05 13:51:57;;;;;;;12.88;2.28;;;;;;;;;;5033875;28;20083;-75
2023/07/05 13:54:23;;;;;;;8.82;1.95;;;;;;;;;;5006657;28;20017;-75
2023/07/05 13:56:49;;;;;;;8.60;2.10;;;;;;;;;;5033276;28;20021;-75
2023/07/05 13:59:16;;;;;;;6.68;2.30;;;;;;;;;;5013603;28;20025;-75
2023/07/05 14:01:43;;;;;;;9.82;2.20;;;;;;;;;;5010429;28;20120;-75
2023/07/05 14:04:12;;;;;;;6.68;1.77;;;;;;;;;;4993899;28;20051;-75
2023/07/05 14:06:39;;;;;;;10.70;2.53;;;;;;;;;;5008338;28;20021;-75
2023/07/05 14:09:05;;;;;;;6.47;2.10;;;;;;;;;;5013177;28;20091;-75
2023/07/05 14:11:34;;;;;;;10.07;2.15;;;;;;;;;;5013282;28;20665;-75
2023/07/05 14:14:01;;;;;;;11.13;2.35;;;;;;;;;;5013286;28;20744;-75
2023/07/05 14:16:27;;;;;;;6.47;1.88;;;;;;;;;;5013429;28;20095;-75
2023/07/05 14:18:53;;;;;;;9.63;2.25;;;;;;;;;;5013180;28;20036;-75
2023/07/05 14:21:22;;;;;;;9.93;2.40;;;;;;;;;;5012896;28;20385;-75
2023/07/05 14:23:48;;;;;;;4.53;1.33;;;;;;;;;;5021429;28;20041;-76
2023/07/05 14:26:14;;;;;;;11.63;2.17;;;;;;;;;;5030643;28;20682;-75
2023/07/05 14:28:41;;;;;;;8.75;2.63;;;;;;;;;;5021736;28;20018;-74
2023/07/05 14:31:15;;;;;;;5.18;1.88;;;;;;;;;;5030601;28;20030;-75
2023/07/05 14:33:41;;;;;;;8.45;2.95;;;;;;;;;;5012901;28;20372;-75
2023/07/05 14:36:11;;;;;;;5.55;2.05;;;;;;;;;;5012869;28;20464;-75
2023/07/05 14:38:37;;;;;;;;;;;;;;;;;;5013276;28;20025;-75
2023/07/05 14:41:03;;;;;;;6.45;2.53;;;;;;;;;;5016614;28;19912;-75
2023/07/05 14:43:32;;;;;;;8.48;2.25;;;;;;;;;;5032831;28;20108;-75
2023/07/05 14:45:58;;;;;;;5.23;2.20;;;;;;;;;;5014995;28;20097;-75
2023/07/05 14:48:24;;;;;;;7.97;2.53;;;;;;;;;;5001631;28;20025;-74